Vronskiy — C4AY2 — position and weather

sailwx.info

Track history (hours):
 
Tides and Currents Weather Stations Pressure Air Temp Water Temp Dewpoint Dewpoint Depression Visibility Wind Speed Wind Dir Waves Ship Positions

Vronskiy

Last reported at 2015-Jul-01 01:33 UTC. Time now 2015-Jul-01 01:53 UTC.
Position N 36°08' W 005°26'.

Length 131 m; draft 5.2 m.

Type: Passenger vessel. MMSI: 210030000.

Date/timePositionNaut miles runAvg speedWind from/ knotsBaromVisibWave heightAir tempDewpointWater temp
2015-Jul-01 01:33N 36°08' W 005°26'10 9.7
2015-Jul-01 00:33N 35°58' W 005°26'4 1.1
2015-Jun-30 21:11N 35°56' W 005°30'913.7
2015-Jun-30 20:34N 36°03' W 005°24'5 2.5
2015-Jun-30 18:33N 36°08' W 005°26'1111.0
2015-Jun-30 17:33N 35°57' W 005°27'2 0.7
2015-Jun-30 14:19N 35°56' W 005°30'1113.6
2015-Jun-30 13:31N 36°06' W 005°24'3 1.5
2015-Jun-30 11:30N 36°08' W 005°26'1010.1
2015-Jun-30 10:33N 35°58' W 005°26'4 1.3
2015-Jun-30 07:29N 35°56' W 005°30'5 0.7
2015-Jun-30 00:23N 35°59' W 005°25'2 0.5
2015-Jun-29 20:33N 35°59' W 005°28'9 3.5
2015-Jun-29 18:05N 36°08' W 005°26'8 9.3
2015-Jun-29 17:11N 35°60' W 005°24'6 1.5
2015-Jun-29 13:31N 35°57' W 005°30'1313.4
2015-Jun-29 12:33N 36°09' W 005°25'1 1.1
2015-Jun-29 11:26N 36°08' W 005°26'7 6.4
2015-Jun-29 10:19N 36°01' W 005°23'7 2.4
2015-Jun-29 07:21N 35°56' W 005°30'1114.4
2015-Jun-29 06:33N 36°07' W 005°24'2 0.7
2015-Jun-29 03:05N 36°08' W 005°26'0 0.0
2015-Jun-29 02:32N 36°08' W 005°26'11 2.7
2015-Jun-28 22:32N 35°57' W 005°29'1111.1
2015-Jun-28 21:31N 36°08' W 005°26'1 0.3
2015-Jun-28 19:19N 36°09' W 005°26'7 7.8
2015-Jun-28 18:23N 36°02' W 005°24'3 1.1
2015-Jun-28 15:33N 35°60' W 005°27'8 7.0
2015-Jun-28 14:24N 36°08' W 005°26'0 0.0
2015-Jun-28 13:18N 36°08' W 005°26'0 0.0
2015-Jun-28 12:27N 36°08' W 005°26'15 3.6
2015-Jun-28 08:20N 35°54' W 005°31'1114.8
2015-Jun-28 07:34N 36°04' W 005°24'5 0.9
2015-Jun-28 02:21N 36°08' W 005°26'910.3
2015-Jun-28 01:31N 35°59' W 005°25'5 1.2
2015-Jun-27 21:14N 35°56' W 005°30'1014.7
2015-Jun-27 20:33N 36°05' W 005°24'4 3.6
2015-Jun-27 19:33N 36°08' W 005°26'0 0.0
2015-Jun-27 18:33N 36°08' W 005°26'8 7.2
2015-Jun-27 17:28N 36°00' W 005°25'6 2.0
2015-Jun-27 14:23N 35°56' W 005°31'1113.9
2015-Jun-27 13:33N 36°06' W 005°24'11 3.5
2015-Jun-27 10:28N 35°56' W 005°29'1 0.4
2015-Jun-27 07:22N 35°56' W 005°30'1214.8
2015-Jun-27 06:33N 36°07' W 005°24'2 0.4
2015-Jun-27 01:10N 36°08' W 005°26'10 2.2
2015-Jun-26 20:33N 35°58' W 005°29'2 0.3
2015-Jun-26 14:28N 35°56' W 005°30'1314.0
2015-Jun-26 13:33N 36°08' W 005°25'11 3.3
2015-Jun-26 10:18N 35°58' W 005°27'2 0.6
2015-Jun-26 07:30N 35°59' W 005°27'9 1.4
2015-Jun-26 01:19N 36°08' W 005°26'8 7.3
2015-Jun-26 00:09N 35°59' W 005°25'5 1.8
2015-Jun-25 21:33N 35°57' W 005°30'0 0.1
2015-Jun-25 15:12N 35°57' W 005°29'1013.8
2015-Jun-25 14:26N 36°06' W 005°24'11 1.6
2015-Jun-25 07:34N 35°57' W 005°31'12 2.3
2015-Jun-25 02:33N 36°08' W 005°26'9 8.5
2015-Jun-25 01:32N 35°59' W 005°25'5 1.2
2015-Jun-24 21:33N 35°57' W 005°30'1210.3
2015-Jun-24 20:26N 36°08' W 005°26'0 0.1
2015-Jun-24 19:25N 36°08' W 005°26'7 5.7
2015-Jun-24 18:09N 36°01' W 005°25'1 0.2
2015-Jun-24 14:33N 36°01' W 005°25'4 1.1
2015-Jun-24 10:33N 35°58' W 005°27'2 0.6
2015-Jun-24 07:33N 35°59' W 005°28'10 1.6
2015-Jun-24 01:32N 36°09' W 005°25'14 3.4
2015-Jun-23 21:22N 35°55' W 005°30'1113.2
2015-Jun-23 20:33N 36°04' W 005°24'4 0.2
2015-Jun-22 19:26N 36°08' W 005°26'0 0.0
2015-Jun-22 01:05N 36°08' W 005°26'0 0.6
2015-Jun-22 00:32N 36°08' W 005°26'1212.5
2015-Jun-21 23:34N 35°56' W 005°28'3 1.7
2015-Jun-21 21:30N 35°54' W 005°31'1313.3
2015-Jun-21 20:33N 36°05' W 005°24'4 3.6
2015-Jun-21 19:32N 36°08' W 005°26'0 0.0
2015-Jun-21 18:29N 36°08' W 005°26'8 8.4
2015-Jun-21 17:33N 36°00' W 005°25'1 0.5
2015-Jun-21 14:33N 35°60' W 005°27'8 8.2
2015-Jun-21 13:33N 36°08' W 005°26'0 0.0
2015-Jun-21 11:33N 36°08' W 005°26'8 7.4
2015-Jun-21 10:32N 36°00' W 005°25'6 1.9
2015-Jun-21 07:33N 35°57' W 005°30'12 2.8
2015-Jun-21 03:18N 36°08' W 005°26'7 8.0
2015-Jun-21 02:26N 36°01' W 005°24'  
Track history (hours):
 
Tides and Currents Weather Stations Pressure Air Temp Water Temp Dewpoint Dewpoint Depression Visibility Wind Speed Wind Dir Waves Ship Positions

Vronskiy

Last reported at 2015-Jul-01 01:33 UTC. Time now 2015-Jul-01 01:53 UTC.
Position N 36°08' W 005°26'.

Length 131 m; draft 5.2 m.

Type: Passenger vessel. MMSI: 210030000.

Date/timePositionNaut miles runAvg speedWind from/ knotsBaromVisibWave heightAir tempDewpointWater temp
2015-Jul-01 01:33N 36°08' W 005°26'10 9.7
2015-Jul-01 00:33N 35°58' W 005°26'4 1.1
2015-Jun-30 21:11N 35°56' W 005°30'913.7
2015-Jun-30 20:34N 36°03' W 005°24'5 2.5
2015-Jun-30 18:33N 36°08' W 005°26'1111.0
2015-Jun-30 17:33N 35°57' W 005°27'2 0.7
2015-Jun-30 14:19N 35°56' W 005°30'1113.6
2015-Jun-30 13:31N 36°06' W 005°24'3 1.5
2015-Jun-30 11:30N 36°08' W 005°26'1010.1
2015-Jun-30 10:33N 35°58' W 005°26'4 1.3
2015-Jun-30 07:29N 35°56' W 005°30'5 0.7
2015-Jun-30 00:23N 35°59' W 005°25'2 0.5
2015-Jun-29 20:33N 35°59' W 005°28'9 3.5
2015-Jun-29 18:05N 36°08' W 005°26'8 9.3
2015-Jun-29 17:11N 35°60' W 005°24'6 1.5
2015-Jun-29 13:31N 35°57' W 005°30'1313.4
2015-Jun-29 12:33N 36°09' W 005°25'1 1.1
2015-Jun-29 11:26N 36°08' W 005°26'7 6.4
2015-Jun-29 10:19N 36°01' W 005°23'7 2.4
2015-Jun-29 07:21N 35°56' W 005°30'1114.4
2015-Jun-29 06:33N 36°07' W 005°24'2 0.7
2015-Jun-29 03:05N 36°08' W 005°26'0 0.0
2015-Jun-29 02:32N 36°08' W 005°26'11 2.7
2015-Jun-28 22:32N 35°57' W 005°29'1111.1
2015-Jun-28 21:31N 36°08' W 005°26'1 0.3
2015-Jun-28 19:19N 36°09' W 005°26'7 7.8
2015-Jun-28 18:23N 36°02' W 005°24'3 1.1
2015-Jun-28 15:33N 35°60' W 005°27'8 7.0
2015-Jun-28 14:24N 36°08' W 005°26'0 0.0
2015-Jun-28 13:18N 36°08' W 005°26'0 0.0
2015-Jun-28 12:27N 36°08' W 005°26'15 3.6
2015-Jun-28 08:20N 35°54' W 005°31'1114.8
2015-Jun-28 07:34N 36°04' W 005°24'5 0.9
2015-Jun-28 02:21N 36°08' W 005°26'910.3
2015-Jun-28 01:31N 35°59' W 005°25'5 1.2
2015-Jun-27 21:14N 35°56' W 005°30'1014.7
2015-Jun-27 20:33N 36°05' W 005°24'4 3.6
2015-Jun-27 19:33N 36°08' W 005°26'0 0.0
2015-Jun-27 18:33N 36°08' W 005°26'8 7.2
2015-Jun-27 17:28N 36°00' W 005°25'6 2.0
2015-Jun-27 14:23N 35°56' W 005°31'1113.9
2015-Jun-27 13:33N 36°06' W 005°24'11 3.5
2015-Jun-27 10:28N 35°56' W 005°29'1 0.4
2015-Jun-27 07:22N 35°56' W 005°30'1214.8
2015-Jun-27 06:33N 36°07' W 005°24'2 0.4
2015-Jun-27 01:10N 36°08' W 005°26'10 2.2
2015-Jun-26 20:33N 35°58' W 005°29'2 0.3
2015-Jun-26 14:28N 35°56' W 005°30'1314.0
2015-Jun-26 13:33N 36°08' W 005°25'11 3.3
2015-Jun-26 10:18N 35°58' W 005°27'2 0.6
2015-Jun-26 07:30N 35°59' W 005°27'9 1.4
2015-Jun-26 01:19N 36°08' W 005°26'8 7.3
2015-Jun-26 00:09N 35°59' W 005°25'5 1.8
2015-Jun-25 21:33N 35°57' W 005°30'0 0.1
2015-Jun-25 15:12N 35°57' W 005°29'1013.8
2015-Jun-25 14:26N 36°06' W 005°24'11 1.6
2015-Jun-25 07:34N 35°57' W 005°31'12 2.3
2015-Jun-25 02:33N 36°08' W 005°26'9 8.5
2015-Jun-25 01:32N 35°59' W 005°25'5 1.2
2015-Jun-24 21:33N 35°57' W 005°30'1210.3
2015-Jun-24 20:26N 36°08' W 005°26'0 0.1
2015-Jun-24 19:25N 36°08' W 005°26'7 5.7
2015-Jun-24 18:09N 36°01' W 005°25'1 0.2
2015-Jun-24 14:33N 36°01' W 005°25'4 1.1
2015-Jun-24 10:33N 35°58' W 005°27'2 0.6
2015-Jun-24 07:33N 35°59' W 005°28'10 1.6
2015-Jun-24 01:32N 36°09' W 005°25'14 3.4
2015-Jun-23 21:22N 35°55' W 005°30'1113.2
2015-Jun-23 20:33N 36°04' W 005°24'4 0.2
2015-Jun-22 19:26N 36°08' W 005°26'0 0.0
2015-Jun-22 01:05N 36°08' W 005°26'0 0.6
2015-Jun-22 00:32N 36°08' W 005°26'1212.5
2015-Jun-21 23:34N 35°56' W 005°28'3 1.7
2015-Jun-21 21:30N 35°54' W 005°31'1313.3
2015-Jun-21 20:33N 36°05' W 005°24'4 3.6
2015-Jun-21 19:32N 36°08' W 005°26'0 0.0
2015-Jun-21 18:29N 36°08' W 005°26'8 8.4
2015-Jun-21 17:33N 36°00' W 005°25'1 0.5
2015-Jun-21 14:33N 35°60' W 005°27'8 8.2
2015-Jun-21 13:33N 36°08' W 005°26'0 0.0
2015-Jun-21 11:33N 36°08' W 005°26'8 7.4
2015-Jun-21 10:32N 36°00' W 005°25'6 1.9
2015-Jun-21 07:33N 35°57' W 005°30'12 2.8
2015-Jun-21 03:18N 36°08' W 005°26'7 8.0
2015-Jun-21 02:26N 36°01' W 005°24'  

Dump ship's entire track history